Time;durP1;ratioP1;P1;durP2;ratioP2;P2;SDS_P1;SDS_P2;PMS_P1;PMS_P2;Temp;Humidity;BMP_temperature;BMP_pressure;BME280_temperature;BME280_humidity;BME280_pressure;Samples;Min_cycle;Max_cycle;Signal;HPM_P1;HPM_P2
2023/12/01 00:00:28;;;;;;;2.60;2.40;;;;;;;21.19;49.90;95796.09;4950366;29;20723;-27
2023/12/01 00:02:55;;;;;;;3.83;2.90;;;;;;;21.21;49.83;95796.09;4948554;29;20248;-26
2023/12/01 00:05:22;;;;;;;2.90;2.60;;;;;;;21.20;50.16;95800.34;4948656;29;20204;-26
2023/12/01 00:07:48;;;;;;;2.70;2.50;;;;;;;21.21;49.84;95799.53;4951319;29;20200;-27
2023/12/01 00:10:15;;;;;;;2.70;2.50;;;;;;;21.21;49.89;95798.66;4953602;28;20236;-27
2023/12/01 00:12:42;;;;;;;2.50;2.30;;;;;;;21.13;49.81;95790.97;4947521;29;20595;-28
2023/12/01 00:15:08;;;;;;;3.27;2.97;;;;;;;21.20;50.23;95800.34;4953381;29;20206;-35
2023/12/01 00:17:35;;;;;;;2.73;2.50;;;;;;;21.21;49.82;95796.97;4951955;29;20679;-29
2023/12/01 00:20:01;;;;;;;2.67;2.33;;;;;;;21.22;50.09;95792.69;4935065;29;20663;-26
2023/12/01 00:22:28;;;;;;;3.17;2.87;;;;;;;21.20;49.92;95784.19;4945427;29;20968;-26
2023/12/01 00:24:55;;;;;;;3.13;2.83;;;;;;;21.21;50.10;95793.56;4952383;29;20288;-26
2023/12/01 00:27:21;;;;;;;2.60;2.40;;;;;;;21.21;49.80;95803.78;4947666;29;20271;-28
2023/12/01 00:29:48;;;;;;;3.43;3.13;;;;;;;21.22;50.43;95805.47;4949440;29;20205;-26
2023/12/01 00:32:15;;;;;;;4.73;3.00;;;;;;;21.22;49.87;95792.69;4926981;29;20220;-26
2023/12/01 00:34:42;;;;;;;2.77;2.57;;;;;;;21.21;49.76;95786.75;4953129;29;20239;-26
2023/12/01 00:37:08;;;;;;;2.90;2.70;;;;;;;21.22;50.07;95785.03;4949691;29;20197;-26
2023/12/01 00:39:35;;;;;;;2.77;2.57;;;;;;;21.22;50.12;95792.69;4941949;29;20252;-26
2023/12/01 00:42:03;;;;;;;2.73;2.53;;;;;;;21.23;49.95;95796.97;4938849;29;20225;-27
2023/12/01 00:44:30;;;;;;;2.73;2.53;;;;;;;21.23;50.13;95791.88;4943732;29;20236;-26
2023/12/01 00:46:57;;;;;;;2.80;2.60;;;;;;;21.22;49.94;95788.44;4947605;29;20211;-27
2023/12/01 00:49:23;;;;;;;2.63;2.43;;;;;;;21.24;50.03;95791.88;4941535;29;20201;-26
2023/12/01 00:51:50;;;;;;;2.97;2.70;;;;;;;21.23;49.97;95794.41;4944891;29;20239;-28
2023/12/01 00:54:16;;;;;;;3.10;2.50;;;;;;;21.24;49.62;95791.00;4953284;29;20291;-27
2023/12/01 00:56:43;;;;;;;2.83;2.63;;;;;;;21.24;50.08;95798.66;4944976;29;20252;-26
2023/12/01 00:59:12;;;;;;;2.80;2.60;;;;;;;21.24;49.88;95798.66;4940169;29;20260;-26
2023/12/01 01:01:39;;;;;;;2.43;2.23;;;;;;;21.23;49.74;95789.31;4941519;29;20316;-26
2023/12/01 01:04:06;;;;;;;3.00;2.70;;;;;;;21.23;49.65;95781.66;4945156;29;20291;-26
2023/12/01 01:06:35;;;;;;;2.87;2.57;;;;;;;21.22;49.92;95777.38;4952397;29;20688;-29
2023/12/01 01:09:01;;;;;;;2.80;2.60;;;;;;;21.20;49.94;95772.25;4947011;29;20264;-28
2023/12/01 01:11:28;;;;;;;3.03;2.73;;;;;;;21.21;50.00;95771.44;4939230;29;20208;-27
2023/12/01 01:13:55;;;;;;;2.60;2.40;;;;;;;21.21;49.84;95781.63;4941732;29;20280;-26
2023/12/01 01:16:22;;;;;;;2.60;2.40;;;;;;;21.19;50.02;95775.66;4945282;29;20251;-28
2023/12/01 01:18:49;;;;;;;3.00;2.70;;;;;;;21.19;49.99;95778.22;4942243;29;20291;-32
2023/12/01 01:21:16;;;;;;;3.10;2.80;;;;;;;21.18;49.99;95771.41;4948701;28;20224;-27
2023/12/01 01:23:43;;;;;;;2.60;2.40;;;;;;;21.19;49.90;95768.00;4939311;29;20201;-26
2023/12/01 01:26:10;;;;;;;3.37;2.50;;;;;;;21.19;50.03;95775.66;4946024;29;20251;-30
2023/12/01 01:28:36;;;;;;;2.57;2.37;;;;;;;21.19;50.02;95778.22;4937579;29;20233;-27
2023/12/01 01:31:03;;;;;;;2.63;2.43;;;;;;;21.20;50.25;95776.53;4946163;29;20208;-26
2023/12/01 01:33:30;;;;;;;3.10;2.80;;;;;;;21.20;50.11;95791.84;4945437;29;20236;-27
2023/12/01 01:35:57;;;;;;;3.17;2.87;;;;;;;21.19;49.92;95787.56;4940669;29;20196;-26
2023/12/01 01:38:24;;;;;;;2.90;2.70;;;;;;;21.19;50.09;95788.44;4941801;29;20204;-27
2023/12/01 01:40:50;;;;;;;2.77;2.57;;;;;;;21.12;50.16;95773.09;4943145;29;20631;-30
2023/12/01 01:43:23;;;;;;;2.37;2.17;;;;;;;21.19;50.03;95779.91;4941327;29;20235;-26
2023/12/01 01:45:53;;;;;;;2.43;2.23;;;;;;;21.19;50.01;95783.34;4950150;29;20204;-27
2023/12/01 01:48:20;;;;;;;2.40;2.20;;;;;;;21.18;50.02;95779.09;4934811;29;20671;-26
2023/12/01 01:50:46;;;;;;;2.53;2.33;;;;;;;21.15;49.92;95768.00;4940662;29;20637;-32
2023/12/01 01:53:13;;;;;;;2.67;2.47;;;;;;;21.21;50.18;95778.22;4937610;29;20462;-28
2023/12/01 01:55:40;;;;;;;2.57;2.37;;;;;;;21.20;49.83;95771.41;4940486;29;20739;-26
2023/12/01 01:58:07;;;;;;;2.50;2.30;;;;;;;21.19;49.88;95780.78;4923714;29;20201;-26
2023/12/01 02:00:33;;;;;;;3.03;2.50;;;;;;;21.19;50.01;95785.88;4925228;29;20259;-29
2023/12/01 02:03:00;;;;;;;2.77;2.57;;;;;;;21.19;50.26;95773.09;4943653;29;20232;-26
2023/12/01 02:05:27;;;;;;;2.50;2.30;;;;;;;21.19;49.82;95775.66;4942812;29;20641;-26
2023/12/01 02:07:53;;;;;;;2.30;2.20;;;;;;;21.20;50.02;95776.53;4940451;29;20296;-27
2023/12/01 02:10:20;;;;;;;2.90;2.70;;;;;;;21.20;49.85;95779.91;4952580;29;20205;-26
2023/12/01 02:12:47;;;;;;;2.63;2.43;;;;;;;21.21;49.99;95785.88;4942672;29;20223;-27
2023/12/01 02:15:13;;;;;;;2.70;2.50;;;;;;;21.20;50.17;95787.59;4943897;29;20295;-29
2023/12/01 02:17:40;;;;;;;2.80;2.60;;;;;;;21.21;50.00;95785.88;4939053;29;20703;-26
2023/12/01 02:20:14;;;;;;;2.67;2.47;;;;;;;21.21;49.84;95796.97;4943886;29;20200;-26
2023/12/01 02:22:43;;;;;;;2.50;2.37;;;;;;;21.21;50.21;95791.88;4939025;29;20228;-26
2023/12/01 02:25:10;;;;;;;2.53;2.33;;;;;;;21.20;49.88;95785.03;4942923;29;20251;-29
2023/12/01 02:27:36;;;;;;;2.83;2.63;;;;;;;21.21;49.89;95788.44;4937389;29;20223;-28
2023/12/01 02:30:03;;;;;;;2.70;2.50;;;;;;;21.20;50.06;95784.19;4942035;29;20219;-27
2023/12/01 02:32:30;;;;;;;2.37;2.20;;;;;;;21.20;50.00;95784.19;4949874;29;20236;-26
2023/12/01 02:34:56;;;;;;;2.80;2.50;;;;;;;21.19;49.98;95779.91;4945946;29;20201;-27
2023/12/01 02:37:23;;;;;;;2.80;2.57;;;;;;;21.19;50.11;95782.47;4940857;29;20204;-27
2023/12/01 02:39:50;;;;;;;2.70;2.50;;;;;;;21.17;49.91;95781.63;4947290;29;20196;-26
2023/12/01 02:42:16;;;;;;;3.07;2.83;;;;;;;21.17;49.95;95795.22;4942843;29;20233;-28
2023/12/01 02:44:43;;;;;;;2.80;2.60;;;;;;;21.17;50.13;95800.34;4945787;29;20722;-29
2023/12/01 02:47:09;;;;;;;2.67;2.47;;;;;;;21.16;50.27;95803.75;4943847;29;20241;-27
2023/12/01 02:49:36;;;;;;;2.47;2.30;;;;;;;21.15;50.15;95814.81;4948046;29;20220;-26
2023/12/01 02:52:03;;;;;;;2.67;2.47;;;;;;;21.14;50.29;95818.22;4949315;29;20261;-26
2023/12/01 02:54:29;;;;;;;2.70;2.50;;;;;;;21.15;50.03;95817.38;4940252;29;20814;-26
2023/12/01 02:56:56;;;;;;;2.60;2.40;;;;;;;21.16;50.30;95818.22;4948099;29;20240;-28
2023/12/01 02:59:22;;;;;;;2.93;2.63;;;;;;;21.16;50.35;95824.19;4942491;29;20232;-28
2023/12/01 03:01:49;;;;;;;2.60;2.40;;;;;;;21.16;49.95;95813.09;4955863;29;20722;-26
2023/12/01 03:04:16;;;;;;;2.70;2.50;;;;;;;21.17;50.19;95812.28;4949341;29;20205;-31
2023/12/01 03:06:42;;;;;;;2.67;2.47;;;;;;;21.17;50.36;95807.19;4943984;29;20204;-30
2023/12/01 03:09:16;;;;;;;2.50;2.30;;;;;;;21.16;50.16;95808.88;4949060;29;20208;-26
2023/12/01 03:11:44;;;;;;;2.50;2.30;;;;;;;21.17;50.26;95810.56;4950260;29;20223;-26
2023/12/01 03:14:11;;;;;;;3.77;2.83;;;;;;;21.18;50.09;95812.28;4956180;29;20610;-28
2023/12/01 03:16:37;;;;;;;2.30;2.20;;;;;;;21.18;50.08;95808.88;4949152;29;20208;-26
2023/12/01 03:19:08;;;;;;;2.77;2.57;;;;;;;21.19;50.18;95808.00;4950133;29;20598;-27
2023/12/01 03:21:35;;;;;;;2.40;2.20;;;;;;;21.17;50.18;95808.00;4955038;29;20266;-32
2023/12/01 03:24:02;;;;;;;2.63;2.43;;;;;;;21.20;50.30;95818.22;4950809;29;20719;-29
2023/12/01 03:26:29;;;;;;;2.67;2.47;;;;;;;21.20;50.06;95817.41;4945860;29;20213;-27
2023/12/01 03:28:56;;;;;;;2.40;2.20;;;;;;;21.20;49.92;95805.47;4947502;29;20255;-26
2023/12/01 03:31:22;;;;;;;2.73;2.53;;;;;;;21.21;49.90;95819.97;4940855;29;20500;-29
2023/12/01 03:33:49;;;;;;;2.90;2.60;;;;;;;21.21;50.09;95808.88;4946502;29;20200;-28
2023/12/01 03:36:16;;;;;;;2.40;2.20;;;;;;;21.21;50.20;95801.22;4946519;29;20215;-26
2023/12/01 03:38:42;;;;;;;2.73;2.30;;;;;;;21.21;49.93;95807.19;4947849;29;20263;-26
2023/12/01 03:41:09;;;;;;;2.90;2.60;;;;;;;21.21;50.27;95807.19;4948367;29;20252;-28
2023/12/01 03:43:35;;;;;;;2.50;2.30;;;;;;;21.21;49.91;95804.63;4947194;29;20228;-26
2023/12/01 03:46:03;;;;;;;2.70;2.50;;;;;;;21.21;49.89;95814.84;4948249;28;20236;-26
2023/12/01 03:48:33;;;;;;;2.57;2.37;;;;;;;21.21;50.07;95804.63;4946502;29;20236;-26
2023/12/01 03:51:00;;;;;;;2.53;2.33;;;;;;;21.21;50.09;95791.88;4943385;29;20265;-29
2023/12/01 03:53:26;;;;;;;2.83;2.63;;;;;;;21.21;50.14;95785.88;4945307;29;20221;-26
2023/12/01 03:56:00;;;;;;;2.50;2.30;;;;;;;21.21;49.97;95793.56;4955367;29;20707;-26
2023/12/01 03:58:27;;;;;;;2.80;2.60;;;;;;;21.19;50.24;95793.53;4941418;29;20212;-28
2023/12/01 04:00:54;;;;;;;2.70;2.50;;;;;;;21.19;50.26;95790.13;4953919;29;20291;-26
2023/12/01 04:03:21;;;;;;;2.37;2.17;;;;;;;21.18;49.90;95793.53;4952091;29;20235;-26
2023/12/01 04:05:48;;;;;;;2.53;2.33;;;;;;;21.18;50.35;95801.22;4953054;29;20219;-28
2023/12/01 04:08:15;;;;;;;2.60;2.40;;;;;;;21.17;50.14;95799.50;4943823;29;20201;-26
2023/12/01 04:10:42;;;;;;;2.60;2.40;;;;;;;21.17;50.25;95794.41;4952572;29;20209;-26
2023/12/01 04:13:09;;;;;;;3.03;2.80;;;;;;;21.17;50.48;95799.50;4946865;29;20217;-26
2023/12/01 04:15:39;;;;;;;2.60;2.40;;;;;;;21.15;50.26;95779.06;4949177;29;20211;-27
2023/12/01 04:18:08;;;;;;;2.47;2.27;;;;;;;21.15;50.48;95796.94;4941883;29;20204;-26
2023/12/01 04:20:38;;;;;;;2.70;2.50;;;;;;;21.14;50.51;95797.78;4928045;29;20211;-27
2023/12/01 04:23:09;;;;;;;2.20;2.10;;;;;;;21.14;50.56;95791.84;4940991;29;20228;-29
2023/12/01 04:25:36;;;;;;;2.70;2.50;;;;;;;21.15;50.53;95794.41;4950864;29;20204;-27
2023/12/01 04:28:04;;;;;;;2.70;2.50;;;;;;;21.13;50.05;95795.22;4939383;29;20205;-26
2023/12/01 04:30:31;;;;;;;2.60;2.40;;;;;;;21.16;50.10;95806.31;4944097;29;20200;-30
2023/12/01 04:32:59;;;;;;;2.73;2.53;;;;;;;21.17;50.26;95807.19;4949654;29;20299;-26
2023/12/01 04:35:28;;;;;;;2.70;2.50;;;;;;;21.16;50.33;95806.31;4953744;29;20208;-27
2023/12/01 04:37:55;;;;;;;2.40;2.30;;;;;;;21.16;50.39;95801.19;4946471;29;20231;-26
2023/12/01 04:40:22;;;;;;;2.33;2.20;;;;;;;21.17;50.47;95805.44;4944450;29;20205;-26
2023/12/01 04:42:52;;;;;;;2.40;2.20;;;;;;;21.17;49.98;95800.34;4944385;29;20264;-26
2023/12/01 04:45:26;;;;;;;2.53;2.33;;;;;;;21.18;50.40;95809.72;4948463;29;20591;-26
2023/12/01 04:47:54;;;;;;;2.50;2.30;;;;;;;21.18;50.21;95808.88;4944995;29;20200;-26
2023/12/01 04:50:27;;;;;;;2.57;2.37;;;;;;;21.18;50.05;95801.22;4943807;29;20283;-27
2023/12/01 04:52:55;;;;;;;2.70;2.50;;;;;;;21.18;50.16;95803.75;4946820;29;20278;-27
2023/12/01 04:55:24;;;;;;;2.50;2.30;;;;;;;21.18;50.03;95796.97;4948810;29;20209;-27
2023/12/01 04:57:50;;;;;;;2.50;2.30;;;;;;;21.18;50.23;95804.63;4948514;28;20205;-27
2023/12/01 05:00:22;;;;;;;2.47;2.27;;;;;;;21.19;50.25;95803.75;4947321;29;20212;-30
2023/12/01 05:02:53;;;;;;;2.63;2.43;;;;;;;21.20;50.39;95802.06;4950894;29;20651;-26
2023/12/01 05:05:20;;;;;;;2.60;2.40;;;;;;;21.20;50.09;95802.06;4944409;29;20201;-26
2023/12/01 05:07:50;;;;;;;2.67;2.47;;;;;;;21.20;50.28;95800.34;4946028;29;20200;-29
2023/12/01 05:10:21;;;;;;;2.70;2.50;;;;;;;21.20;50.32;95805.47;4942227;29;20234;-28
2023/12/01 05:12:49;;;;;;;2.30;2.13;;;;;;;21.21;50.20;95812.28;4941179;29;20221;-29
2023/12/01 05:15:20;;;;;;;2.60;2.40;;;;;;;21.20;50.14;95815.69;4943990;29;20208;-26
2023/12/01 05:18:07;;;;;;;2.80;2.60;;;;;;;21.20;50.10;95828.44;4946490;29;20256;-32
2023/12/01 05:20:34;;;;;;;2.80;2.60;;;;;;;21.20;50.01;95817.41;4945510;29;20200;-26
2023/12/01 05:23:05;;;;;;;2.50;2.30;;;;;;;21.19;50.23;95831.88;4947158;29;20278;-26
2023/12/01 05:25:35;;;;;;;2.40;2.20;;;;;;;21.19;49.97;95834.41;4953109;29;20207;-27
2023/12/01 05:28:02;;;;;;;3.70;2.80;;;;;;;21.18;49.60;95827.63;4947858;29;20232;-29
2023/12/01 05:30:31;;;;;;;2.87;2.67;;;;;;;21.18;49.73;95836.97;4951304;29;20670;-30
2023/12/01 05:33:00;;;;;;;2.70;2.50;;;;;;;21.17;49.67;95838.66;4952361;29;20302;-30
2023/12/01 05:35:27;;;;;;;4.77;4.37;;;;;;;21.15;46.85;95832.72;4947535;29;20208;-35
2023/12/01 05:37:55;;;;;;;7.27;6.57;;;;;;;21.15;45.38;95834.41;4941031;29;20640;-30
2023/12/01 05:40:26;;;;;;;7.97;7.27;;;;;;;21.13;43.59;95828.41;4945359;29;20627;-27
2023/12/01 05:42:54;;;;;;;8.73;7.83;;;;;;;21.11;42.73;95819.91;4951897;29;20232;-26
2023/12/01 05:45:22;;;;;;;8.37;7.67;;;;;;;21.09;42.14;95829.25;4947054;29;20307;-26
2023/12/01 05:47:52;;;;;;;11.90;8.67;;;;;;;21.06;41.39;95835.22;4946344;29;20232;-27
2023/12/01 05:50:20;;;;;;;10.40;9.40;;;;;;;21.04;41.04;95833.50;4947902;29;20242;-28
2023/12/01 05:52:48;;;;;;;10.10;8.90;;;;;;;21.02;40.04;95835.22;4945354;29;20228;-28
2023/12/01 05:55:16;;;;;;;11.57;10.37;;;;;;;20.99;39.90;95837.75;4943890;29;20251;-29
2023/12/01 05:57:47;;;;;;;10.50;9.50;;;;;;;20.98;41.60;95842.00;4947357;29;20592;-29
2023/12/01 06:00:22;;;;;;;10.33;9.33;;;;;;;20.98;42.48;95836.00;4953259;29;20200;-26
2023/12/01 06:02:50;;;;;;;10.37;9.47;;;;;;;20.96;42.05;95835.19;4941742;29;20259;-26
2023/12/01 06:05:18;;;;;;;9.77;8.87;;;;;;;20.96;42.43;95838.56;4942919;29;20204;-27
2023/12/01 06:07:58;;;;;;;9.83;8.83;;;;;;;20.97;42.73;95844.53;4946731;28;20613;-27
2023/12/01 06:10:26;;;;;;;9.07;8.27;;;;;;;20.97;42.55;95836.88;4953813;29;20232;-26
2023/12/01 06:12:53;;;;;;;9.07;8.20;;;;;;;20.98;43.08;95833.47;4949146;29;20220;-31
2023/12/01 06:15:20;;;;;;;8.90;8.10;;;;;;;20.98;43.88;95825.81;4952413;29;20209;-31
2023/12/01 06:17:47;;;;;;;8.80;8.00;;;;;;;20.98;43.77;95830.91;4943482;28;20660;-26
2023/12/01 06:20:18;;;;;;;8.10;7.40;;;;;;;21.00;44.85;95821.56;4947393;29;20715;-26
2023/12/01 06:22:56;;;;;;;8.30;7.50;;;;;;;21.03;45.30;95824.13;4953578;29;20232;-26
2023/12/01 06:25:29;;;;;;;8.60;7.57;;;;;;;21.05;45.36;95833.50;4950698;29;20209;-26
2023/12/01 06:27:56;;;;;;;8.77;7.03;;;;;;;21.04;45.42;95819.03;4942849;29;20220;-36
2023/12/01 06:30:24;;;;;;;10.47;6.70;;;;;;;21.04;45.58;95823.28;4954276;29;20200;-26
2023/12/01 06:32:51;;;;;;;7.27;6.57;;;;;;;21.05;45.86;95835.22;4946406;29;20252;-26
2023/12/01 06:35:19;;;;;;;7.03;6.33;;;;;;;21.05;45.91;95837.78;4950641;29;20255;-26
2023/12/01 06:37:46;;;;;;;6.57;5.97;;;;;;;21.05;46.09;95828.38;4952992;29;20247;-26
2023/12/01 06:40:17;;;;;;;6.73;6.13;;;;;;;21.03;45.86;95825.00;4954242;29;20239;-27
2023/12/01 06:42:43;;;;;;;6.10;5.50;;;;;;;21.04;46.26;95826.69;4946109;29;20264;-26
2023/12/01 06:45:10;;;;;;;9.47;8.57;;;;;;;21.03;42.05;95832.66;4951901;29;20579;-29
2023/12/01 06:47:38;;;;;;;10.10;9.10;;;;;;;21.00;39.44;95840.31;4930258;29;20236;-27
2023/12/01 06:50:05;;;;;;;10.40;9.33;;;;;;;20.99;39.54;95833.47;4935297;29;20211;-29
2023/12/01 06:52:33;;;;;;;10.70;9.17;;;;;;;20.94;41.08;95835.13;4955731;29;20228;-26
2023/12/01 06:55:01;;;;;;;9.97;8.93;;;;;;;20.98;41.72;95846.22;4947020;29;20209;-28
2023/12/01 06:57:27;;;;;;;9.37;8.27;;;;;;;20.97;42.04;95852.19;4950354;29;20204;-28
2023/12/01 06:59:54;;;;;;;11.67;8.60;;;;;;;20.96;42.30;95843.66;4947175;29;20205;-26
2023/12/01 07:02:20;;;;;;;10.07;8.03;;;;;;;20.96;42.29;95848.78;4952050;29;20302;-26
2023/12/01 07:04:47;;;;;;;9.40;8.50;;;;;;;20.97;42.59;95847.09;4952867;29;20224;-29
2023/12/01 07:07:14;;;;;;;10.53;7.87;;;;;;;20.97;42.83;95847.09;4945535;29;20213;-29
2023/12/01 07:09:43;;;;;;;8.00;7.30;;;;;;;20.97;43.14;95870.94;4955919;29;20208;-26
2023/12/01 07:12:24;;;;;;;8.20;7.37;;;;;;;20.98;43.34;95870.06;4947909;29;20220;-28
2023/12/01 07:14:50;;;;;;;7.90;7.13;;;;;;;20.99;43.73;95881.16;4954770;29;20205;-26
2023/12/01 07:17:17;;;;;;;8.00;7.30;;;;;;;21.00;43.55;95898.19;4947546;29;20201;-26
2023/12/01 07:19:44;;;;;;;7.23;6.60;;;;;;;21.01;43.85;95897.31;4949963;28;20200;-26
2023/12/01 07:22:11;;;;;;;8.40;7.60;;;;;;;20.99;43.63;95893.94;4938038;28;20248;-26
2023/12/01 07:24:38;;;;;;;7.80;7.10;;;;;;;21.00;44.15;95898.19;4941767;28;20227;-37
2023/12/01 07:27:05;;;;;;;8.47;6.73;;;;;;;21.00;44.16;95896.50;4947401;28;20204;-26
2023/12/01 07:29:31;;;;;;;7.80;6.20;;;;;;;21.00;44.10;95891.38;4947951;28;20672;-26
2023/12/01 07:31:59;;;;;;;6.53;6.03;;;;;;;21.01;44.26;95887.09;4947668;28;20290;-33
2023/12/01 07:34:26;;;;;;;6.83;6.00;;;;;;;21.02;44.19;95896.50;4952424;28;20215;-29
2023/12/01 07:36:53;;;;;;;7.50;6.30;;;;;;;21.01;44.45;95898.19;4948991;28;20232;-30
2023/12/01 07:39:22;;;;;;;5.87;5.37;;;;;;;21.02;44.74;95899.06;4949463;28;20244;-26
2023/12/01 07:41:50;;;;;;;6.33;5.73;;;;;;;21.02;44.96;95902.44;4948179;28;20225;-30
2023/12/01 07:44:17;;;;;;;8.90;6.13;;;;;;;21.02;45.08;95896.50;4947168;28;20232;-26
2023/12/01 07:46:44;;;;;;;5.73;5.23;;;;;;;21.03;45.07;95909.28;4941565;28;20208;-31
2023/12/01 07:49:11;;;;;;;5.97;5.43;;;;;;;21.03;45.32;95906.72;4949683;28;20758;-32
2023/12/01 07:51:38;;;;;;;5.80;5.30;;;;;;;20.98;45.21;95892.19;4947715;28;20231;-28
2023/12/01 07:54:05;;;;;;;5.50;5.00;;;;;;;21.05;45.16;95907.56;4941958;28;20873;-29
2023/12/01 07:56:32;;;;;;;5.47;4.97;;;;;;;21.06;45.63;95903.31;4950546;28;20208;-29
2023/12/01 07:58:59;;;;;;;5.47;4.97;;;;;;;21.07;45.57;95910.13;4945234;28;20209;-28
2023/12/01 08:01:25;;;;;;;5.27;4.77;;;;;;;21.08;45.65;95911.84;4937093;28;20212;-32
2023/12/01 08:03:52;;;;;;;5.50;4.93;;;;;;;21.07;45.56;95903.31;4946548;28;20228;-29
2023/12/01 08:06:19;;;;;;;5.20;4.70;;;;;;;21.08;45.56;95899.09;4950449;28;20235;-26
2023/12/01 08:08:46;;;;;;;5.50;4.93;;;;;;;21.08;45.85;95888.88;4941750;28;20204;-29
2023/12/01 08:11:13;;;;;;;5.10;4.60;;;;;;;21.10;45.73;95905.03;4949230;28;20223;-26
2023/12/01 08:13:39;;;;;;;4.73;4.33;;;;;;;21.10;45.99;95894.81;4946241;28;20287;-27
2023/12/01 08:16:06;;;;;;;4.90;4.43;;;;;;;21.08;46.00;95887.16;4941243;28;20212;-32
2023/12/01 08:18:33;;;;;;;4.90;4.40;;;;;;;21.08;46.10;95892.25;4941787;28;20212;-33
2023/12/01 08:21:00;;;;;;;5.03;4.50;;;;;;;21.08;46.03;95893.97;4940467;28;20208;-29
2023/12/01 08:23:26;;;;;;;4.60;4.20;;;;;;;21.07;46.10;95895.66;4941891;28;20267;-29
2023/12/01 08:25:53;;;;;;;4.50;4.10;;;;;;;21.06;46.00;95896.53;4939625;28;20565;-31
2023/12/01 08:28:20;;;;;;;4.40;4.00;;;;;;;21.07;46.15;95898.22;4940461;28;20305;-29
2023/12/01 08:30:46;;;;;;;4.10;3.80;;;;;;;21.08;46.17;95901.63;4946444;28;20205;-26
2023/12/01 08:33:16;;;;;;;3.93;3.53;;;;;;;21.08;46.16;95912.69;4945722;28;20297;-36
2023/12/01 08:35:43;;;;;;;4.43;4.03;;;;;;;21.09;46.24;95922.09;4947000;29;20353;-32
2023/12/01 08:38:10;;;;;;;4.87;4.03;;;;;;;21.10;46.35;95920.34;4950951;29;20287;-26
2023/12/01 08:40:37;;;;;;;4.70;4.23;;;;;;;21.07;46.39;95912.69;4943645;28;20343;-33
2023/12/01 08:43:09;;;;;;;4.00;3.70;;;;;;;21.08;46.31;95914.41;4946737;29;20278;-30
2023/12/01 08:45:36;;;;;;;4.17;3.77;;;;;;;21.07;46.37;95916.09;4949846;28;20680;-28
2023/12/01 08:48:03;;;;;;;4.40;3.90;;;;;;;21.07;46.66;95928.88;4949765;28;20458;-37
2023/12/01 08:50:30;;;;;;;3.83;3.53;;;;;;;21.06;46.49;95928.84;4949078;28;20587;-40
2023/12/01 08:52:56;;;;;;;4.00;3.67;;;;;;;21.06;46.70;95934.84;4949974;28;20247;-30
2023/12/01 08:55:23;;;;;;;4.10;3.70;;;;;;;21.04;46.77;95931.41;4939546;28;20216;-27
2023/12/01 08:57:50;;;;;;;4.80;3.83;;;;;;;21.04;46.80;95933.97;4949221;28;20208;-27
2023/12/01 09:00:20;;;;;;;3.67;3.37;;;;;;;21.04;46.68;95938.19;4951652;28;20653;-26
2023/12/01 09:02:49;;;;;;;3.90;3.50;;;;;;;21.04;46.76;95933.97;4946532;28;20786;-28
2023/12/01 09:05:17;;;;;;;5.33;3.40;;;;;;;21.04;46.71;95940.75;4938757;28;20232;-27
2023/12/01 09:07:47;;;;;;;5.20;3.60;;;;;;;21.04;46.94;95933.97;4942353;28;20212;-30
2023/12/01 09:10:15;;;;;;;4.10;3.70;;;;;;;21.04;47.00;95941.63;4944887;28;20300;-30
2023/12/01 09:12:42;;;;;;;3.00;2.80;;;;;;;21.02;46.57;95943.31;4939803;29;20232;-33
2023/12/01 09:15:10;;;;;;;5.97;3.37;;;;;;;21.03;46.74;95947.59;4944585;28;20196;-28
2023/12/01 09:17:37;;;;;;;3.50;3.20;;;;;;;21.02;46.89;95940.75;4942601;29;20624;-29
2023/12/01 09:20:05;;;;;;;3.70;3.40;;;;;;;21.03;46.99;95950.13;4950696;28;20208;-26
2023/12/01 09:22:31;;;;;;;3.97;3.10;;;;;;;21.01;47.21;95941.59;4946071;29;20236;-26
2023/12/01 09:24:58;;;;;;;3.07;2.87;;;;;;;21.02;47.17;95947.56;4944954;28;20227;-36
2023/12/01 09:27:25;;;;;;;3.37;3.07;;;;;;;21.02;47.13;95956.06;4948516;28;20212;-30
2023/12/01 09:29:51;;;;;;;3.30;3.00;;;;;;;21.02;47.19;95957.78;4948282;28;20204;-27
2023/12/01 09:32:19;;;;;;;3.83;3.30;;;;;;;21.01;47.22;95954.38;4946114;28;20228;-32
2023/12/01 09:34:45;;;;;;;3.50;3.20;;;;;;;21.01;47.04;95963.72;4944415;28;20664;-28
2023/12/01 09:37:12;;;;;;;3.53;3.20;;;;;;;21.01;47.08;95967.16;4942324;28;20643;-28
2023/12/01 09:39:40;;;;;;;4.00;2.93;;;;;;;21.01;47.17;95971.38;4947211;28;20682;-32
2023/12/01 09:42:09;;;;;;;3.10;2.80;;;;;;;21.00;47.17;95951.81;4943256;28;20260;-29
2023/12/01 09:44:35;;;;;;;2.80;2.60;;;;;;;21.00;47.27;95941.59;4946158;28;20319;-31
2023/12/01 09:47:06;;;;;;;4.33;2.93;;;;;;;20.96;47.46;95922.00;4944503;29;20224;-31
2023/12/01 09:49:33;;;;;;;3.23;2.97;;;;;;;20.99;47.49;95927.97;4917581;29;20693;-26
2023/12/01 09:52:03;;;;;;;4.33;3.23;;;;;;;21.01;47.41;95925.41;4945927;29;20306;-30
2023/12/01 09:54:30;;;;;;;3.13;2.87;;;;;;;21.01;47.44;95930.53;4950962;28;20487;-30
2023/12/01 09:56:57;;;;;;;3.00;2.80;;;;;;;20.98;47.32;95931.38;4942496;29;20300;-27
2023/12/01 09:59:24;;;;;;;3.27;2.97;;;;;;;20.97;47.57;95927.13;4950401;28;20220;-36
2023/12/01 10:01:51;;;;;;;3.27;2.97;;;;;;;20.98;47.53;95923.72;4948516;29;20224;-31
2023/12/01 10:04:19;;;;;;;3.40;3.10;;;;;;;20.99;47.51;95932.22;4932550;29;20225;-31
2023/12/01 10:06:46;;;;;;;3.97;3.10;;;;;;;20.99;47.53;95929.69;4946119;29;20212;-34
2023/12/01 10:09:24;;;;;;;3.40;2.90;;;;;;;20.99;47.68;95916.91;4931673;28;20268;-28
2023/12/01 10:12:10;;;;;;;3.43;3.00;;;;;;;20.99;47.35;95915.19;4943092;29;20279;-29
2023/12/01 10:14:37;;;;;;;3.93;2.90;;;;;;;20.99;47.46;95914.34;4945628;28;20200;-38
2023/12/01 10:17:05;;;;;;;3.83;2.73;;;;;;;20.99;47.63;95915.19;4940758;29;20605;-29
2023/12/01 10:19:32;;;;;;;3.10;2.80;;;;;;;21.00;47.65;95918.63;4942240;28;20238;-27
2023/12/01 10:21:59;;;;;;;3.00;2.57;;;;;;;20.99;47.75;95920.28;4950063;29;20238;-29
2023/12/01 10:24:26;;;;;;;2.70;2.50;;;;;;;20.99;47.74;95919.47;4949492;28;20229;-27
2023/12/01 10:26:56;;;;;;;3.43;3.00;;;;;;;20.99;47.63;95922.03;4946768;29;20213;-26
2023/12/01 10:29:28;;;;;;;2.87;2.63;;;;;;;20.99;47.69;95924.56;4944948;28;20208;-27
2023/12/01 10:31:57;;;;;;;3.00;2.80;;;;;;;20.99;47.80;95925.41;4947717;29;20224;-28
2023/12/01 10:34:23;;;;;;;2.77;2.57;;;;;;;20.99;47.55;95930.50;4945819;28;20211;-29
2023/12/01 10:36:53;;;;;;;2.93;2.73;;;;;;;20.99;47.74;95932.22;4926096;29;20204;-28
2023/12/01 10:39:29;;;;;;;3.23;2.60;;;;;;;20.99;47.70;95937.34;4926343;28;20278;-27
2023/12/01 10:41:57;;;;;;;3.70;2.70;;;;;;;20.98;47.77;95949.25;4947063;29;20547;-26
2023/12/01 10:44:30;;;;;;;3.07;2.50;;;;;;;20.99;47.79;95945.00;4947965;28;20220;-32
2023/12/01 10:46:57;;;;;;;3.10;2.80;;;;;;;20.98;47.85;95933.91;4914513;29;20203;-28
2023/12/01 10:49:23;;;;;;;2.90;2.63;;;;;;;20.99;47.80;95927.13;4946140;28;20627;-36
2023/12/01 10:51:53;;;;;;;3.43;2.80;;;;;;;20.99;48.04;95917.75;4942023;29;20220;-26
2023/12/01 10:54:24;;;;;;;3.13;2.83;;;;;;;20.98;47.80;95913.50;4949033;28;20239;-35
2023/12/01 10:56:56;;;;;;;3.27;2.70;;;;;;;20.98;47.97;95894.75;4933440;29;20755;-30
2023/12/01 10:59:23;;;;;;;2.93;2.70;;;;;;;20.98;47.02;95892.19;4943446;28;20613;-32
2023/12/01 11:01:50;;;;;;;9.80;6.93;;;;;;;20.93;41.89;95881.94;4936200;28;20283;-28
2023/12/01 11:04:25;;;;;;;8.27;7.47;;;;;;;20.89;39.48;95889.56;4923825;28;20232;-27
2023/12/01 11:07:01;;;;;;;11.70;8.50;;;;;;;20.86;38.26;95887.84;4947158;28;20212;-27
2023/12/01 11:09:35;;;;;;;11.13;8.53;;;;;;;20.84;38.83;95884.41;4925678;28;20212;-29
2023/12/01 11:12:13;;;;;;;8.93;8.00;;;;;;;20.84;39.93;95897.19;4913538;28;20286;-32
2023/12/01 11:14:40;;;;;;;9.30;8.00;;;;;;;20.82;40.95;95901.47;4929375;28;20234;-27
2023/12/01 11:17:07;;;;;;;9.57;8.00;;;;;;;20.80;41.38;95899.72;4919405;29;20220;-30
2023/12/01 11:19:37;;;;;;;8.47;7.57;;;;;;;20.81;41.36;95886.13;4911984;28;20792;-26
2023/12/01 11:22:27;;;;;;;8.20;7.40;;;;;;;20.81;41.99;95886.97;4948651;28;20232;-27
2023/12/01 11:24:56;;;;;;;8.43;7.37;;;;;;;20.82;42.31;95887.81;4918382;28;20228;-31
2023/12/01 11:27:25;;;;;;;9.57;7.00;;;;;;;20.82;42.83;95875.06;4945952;28;20227;-31
2023/12/01 11:30:10;;;;;;;8.87;6.63;;;;;;;20.82;43.06;95877.63;4949096;28;20254;-28
2023/12/01 11:32:44;;;;;;;9.10;6.67;;;;;;;20.82;43.17;95881.03;4949703;29;20231;-30
2023/12/01 11:35:12;;;;;;;10.17;6.43;;;;;;;20.84;43.52;95883.59;4946474;28;20736;-32